ADDS TAF Data INFO
IDs: Format: Raw Decoded Include METARs

Data at: 1936 UTC 17 Jul 2018

KRIC 171925Z 1719/1818 21008KT P6SM VCTS SCT035CB BKN120
  TEMPO 1719/1721 26020G30KT 4SM -TSRA BKN035CB
  FM172100 24010KT P6SM VCSH SCT035 BKN100
  FM180000 28006KT P6SM BKN030
  FM180300 30004KT P6SM BKN030
  FM180600 34005KT P6SM SCT150